sensor_id;sensor_type;location;lat;lon;timestamp;pressure;altitude;pressure_sealevel;temperature;humidity
61434;BME280;47300;46.192;9.000;2023-01-25T00:02:14;99423.59;;;3.28;67.64
61434;BME280;47300;46.192;9.000;2023-01-25T00:04:39;99423.19;;;3.40;67.36
61434;BME280;47300;46.192;9.000;2023-01-25T00:07:04;99414.84;;;3.47;68.13
61434;BME280;47300;46.192;9.000;2023-01-25T00:09:30;99409.97;;;3.33;72.65
61434;BME280;47300;46.192;9.000;2023-01-25T00:11:55;99412.69;;;3.37;72.20
61434;BME280;47300;46.192;9.000;2023-01-25T00:14:22;99418.78;;;3.37;71.35
61434;BME280;47300;46.192;9.000;2023-01-25T00:16:47;99412.56;;;2.91;71.45
61434;BME280;47300;46.192;9.000;2023-01-25T00:19:12;99410.50;;;3.03;69.16
61434;BME280;47300;46.192;9.000;2023-01-25T00:21:38;99404.28;;;3.21;65.91
61434;BME280;47300;46.192;9.000;2023-01-25T00:24:03;99396.44;;;3.19;68.79
61434;BME280;47300;46.192;9.000;2023-01-25T00:26:29;99388.66;;;3.19;68.10
61434;BME280;47300;46.192;9.000;2023-01-25T00:28:54;99394.00;;;3.23;68.58
61434;BME280;47300;46.192;9.000;2023-01-25T00:33:55;99403.09;;;3.13;71.91
61434;BME280;47300;46.192;9.000;2023-01-25T00:38:54;99407.00;;;3.24;69.30
61434;BME280;47300;46.192;9.000;2023-01-25T00:41:21;99390.13;;;3.34;67.46
61434;BME280;47300;46.192;9.000;2023-01-25T00:43:46;99406.78;;;3.41;66.29
61434;BME280;47300;46.192;9.000;2023-01-25T00:46:15;99401.59;;;3.41;69.57
61434;BME280;47300;46.192;9.000;2023-01-25T00:48:41;99405.41;;;3.49;69.53
61434;BME280;47300;46.192;9.000;2023-01-25T00:51:06;99409.28;;;3.38;73.03
61434;BME280;47300;46.192;9.000;2023-01-25T00:53:31;99411.00;;;3.16;74.39
61434;BME280;47300;46.192;9.000;2023-01-25T00:55:56;99403.84;;;2.48;77.53
61434;BME280;47300;46.192;9.000;2023-01-25T00:58:21;99399.22;;;2.82;72.37
61434;BME280;47300;46.192;9.000;2023-01-25T01:00:47;99398.41;;;3.04;73.42
61434;BME280;47300;46.192;9.000;2023-01-25T01:03:12;99398.59;;;2.66;76.78
61434;BME280;47300;46.192;9.000;2023-01-25T01:05:37;99402.19;;;2.91;69.83
61434;BME280;47300;46.192;9.000;2023-01-25T01:08:02;99402.88;;;3.29;67.23
61434;BME280;47300;46.192;9.000;2023-01-25T01:10:28;99399.53;;;3.32;72.14
61434;BME280;47300;46.192;9.000;2023-01-25T01:12:53;99405.59;;;3.32;72.96
61434;BME280;47300;46.192;9.000;2023-01-25T01:15:18;99397.34;;;3.20;73.88
61434;BME280;47300;46.192;9.000;2023-01-25T01:17:43;99395.59;;;3.21;73.66
61434;BME280;47300;46.192;9.000;2023-01-25T01:20:09;99404.16;;;3.18;75.10
61434;BME280;47300;46.192;9.000;2023-01-25T01:22:34;99409.81;;;3.08;75.27
61434;BME280;47300;46.192;9.000;2023-01-25T01:24:59;99403.09;;;3.13;75.31
61434;BME280;47300;46.192;9.000;2023-01-25T01:27:25;99402.19;;;3.12;75.32
61434;BME280;47300;46.192;9.000;2023-01-25T01:29:50;99402.97;;;3.10;75.48
61434;BME280;47300;46.192;9.000;2023-01-25T01:32:15;99400.09;;;2.41;78.39
61434;BME280;47300;46.192;9.000;2023-01-25T01:34:40;99397.00;;;2.70;75.90
61434;BME280;47300;46.192;9.000;2023-01-25T01:37:05;99394.66;;;2.76;78.02
61434;BME280;47300;46.192;9.000;2023-01-25T01:39:30;99388.34;;;2.69;77.36
61434;BME280;47300;46.192;9.000;2023-01-25T01:41:56;99395.06;;;2.85;74.53
61434;BME280;47300;46.192;9.000;2023-01-25T01:44:39;99401.19;;;2.87;75.49
61434;BME280;47300;46.192;9.000;2023-01-25T01:47:06;99408.63;;;2.58;77.74
61434;BME280;47300;46.192;9.000;2023-01-25T01:49:33;99394.25;;;2.86;75.25
61434;BME280;47300;46.192;9.000;2023-01-25T01:51:59;99394.50;;;2.93;77.28
61434;BME280;47300;46.192;9.000;2023-01-25T01:54:33;99386.88;;;2.97;76.58
61434;BME280;47300;46.192;9.000;2023-01-25T01:57:08;99383.91;;;3.09;74.66
61434;BME280;47300;46.192;9.000;2023-01-25T02:02:12;99397.38;;;3.22;73.93
61434;BME280;47300;46.192;9.000;2023-01-25T02:04:38;99393.78;;;3.18;73.31
61434;BME280;47300;46.192;9.000;2023-01-25T02:07:05;99380.88;;;3.19;72.99
61434;BME280;47300;46.192;9.000;2023-01-25T02:09:32;99379.06;;;2.96;74.28
61434;BME280;47300;46.192;9.000;2023-01-25T02:11:59;99382.03;;;2.64;75.57
61434;BME280;47300;46.192;9.000;2023-01-25T02:14:24;99373.56;;;2.47;75.72
61434;BME280;47300;46.192;9.000;2023-01-25T02:16:50;99380.16;;;2.60;75.40
61434;BME280;47300;46.192;9.000;2023-01-25T02:19:18;99380.31;;;2.43;76.45
61434;BME280;47300;46.192;9.000;2023-01-25T02:21:46;99388.22;;;2.27;78.42
61434;BME280;47300;46.192;9.000;2023-01-25T02:24:18;99391.84;;;2.30;74.19
61434;BME280;47300;46.192;9.000;2023-01-25T02:26:45;99376.31;;;2.50;73.85
61434;BME280;47300;46.192;9.000;2023-01-25T02:29:10;99379.53;;;2.66;73.88
61434;BME280;47300;46.192;9.000;2023-01-25T02:31:36;99384.84;;;2.69;74.06
61434;BME280;47300;46.192;9.000;2023-01-25T02:34:01;99386.13;;;2.79;73.65
61434;BME280;47300;46.192;9.000;2023-01-25T02:36:27;99401.94;;;2.85;72.87
61434;BME280;47300;46.192;9.000;2023-01-25T02:38:55;99383.88;;;2.86;71.22
61434;BME280;47300;46.192;9.000;2023-01-25T02:41:26;99373.78;;;2.94;66.08
61434;BME280;47300;46.192;9.000;2023-01-25T02:43:54;99382.38;;;3.14;61.83
61434;BME280;47300;46.192;9.000;2023-01-25T02:46:23;99378.84;;;2.91;63.07
61434;BME280;47300;46.192;9.000;2023-01-25T02:48:51;99378.03;;;2.92;61.37
61434;BME280;47300;46.192;9.000;2023-01-25T02:51:16;99379.56;;;3.08;59.21
61434;BME280;47300;46.192;9.000;2023-01-25T02:53:41;99383.16;;;3.12;59.05
61434;BME280;47300;46.192;9.000;2023-01-25T02:56:07;99378.72;;;3.09;60.45
61434;BME280;47300;46.192;9.000;2023-01-25T02:58:32;99368.78;;;3.20;60.83
61434;BME280;47300;46.192;9.000;2023-01-25T03:00:57;99371.19;;;3.15;59.89
61434;BME280;47300;46.192;9.000;2023-01-25T03:03:23;99365.28;;;3.19;57.94
61434;BME280;47300;46.192;9.000;2023-01-25T03:05:48;99362.66;;;3.18;63.63
61434;BME280;47300;46.192;9.000;2023-01-25T03:08:13;99374.00;;;2.99;65.65
61434;BME280;47300;46.192;9.000;2023-01-25T03:10:38;99369.38;;;2.92;66.15
61434;BME280;47300;46.192;9.000;2023-01-25T03:13:03;99358.22;;;2.73;65.79
61434;BME280;47300;46.192;9.000;2023-01-25T03:15:29;99354.81;;;2.74;66.43
61434;BME280;47300;46.192;9.000;2023-01-25T03:17:54;99340.63;;;2.44;66.30
61434;BME280;47300;46.192;9.000;2023-01-25T03:20:20;99336.84;;;2.57;67.01
61434;BME280;47300;46.192;9.000;2023-01-25T03:22:45;99347.56;;;2.65;66.18
61434;BME280;47300;46.192;9.000;2023-01-25T03:25:10;99357.75;;;2.62;64.65
61434;BME280;47300;46.192;9.000;2023-01-25T03:27:35;99361.63;;;2.72;64.90
61434;BME280;47300;46.192;9.000;2023-01-25T03:30:01;99362.28;;;2.66;64.81
61434;BME280;47300;46.192;9.000;2023-01-25T03:32:26;99356.94;;;2.63;65.25
61434;BME280;47300;46.192;9.000;2023-01-25T03:34:51;99361.50;;;2.69;66.28
61434;BME280;47300;46.192;9.000;2023-01-25T03:37:16;99350.44;;;2.52;67.23
61434;BME280;47300;46.192;9.000;2023-01-25T03:39:42;99354.06;;;2.36;68.29
61434;BME280;47300;46.192;9.000;2023-01-25T03:42:07;99369.00;;;2.22;67.48
61434;BME280;47300;46.192;9.000;2023-01-25T03:44:32;99356.34;;;2.08;67.76
61434;BME280;47300;46.192;9.000;2023-01-25T03:46:57;99350.69;;;2.17;67.99
61434;BME280;47300;46.192;9.000;2023-01-25T03:49:22;99344.28;;;2.09;69.64
61434;BME280;47300;46.192;9.000;2023-01-25T03:51:48;99338.41;;;2.13;70.49
61434;BME280;47300;46.192;9.000;2023-01-25T03:54:13;99348.97;;;2.17;69.26
61434;BME280;47300;46.192;9.000;2023-01-25T03:56:38;99350.72;;;2.19;69.58
61434;BME280;47300;46.192;9.000;2023-01-25T03:59:03;99350.00;;;2.21;69.73
61434;BME280;47300;46.192;9.000;2023-01-25T04:01:28;99344.72;;;2.20;70.31
61434;BME280;47300;46.192;9.000;2023-01-25T04:03:54;99346.72;;;2.25;69.47
61434;BME280;47300;46.192;9.000;2023-01-25T04:06:19;99343.19;;;2.23;69.05
61434;BME280;47300;46.192;9.000;2023-01-25T04:08:44;99347.47;;;2.03;70.39
61434;BME280;47300;46.192;9.000;2023-01-25T04:11:09;99333.09;;;2.10;70.25
61434;BME280;47300;46.192;9.000;2023-01-25T04:13:35;99335.00;;;1.94;71.32
61434;BME280;47300;46.192;9.000;2023-01-25T04:16:01;99339.28;;;2.13;71.08
61434;BME280;47300;46.192;9.000;2023-01-25T04:18:26;99349.03;;;2.19;71.11
61434;BME280;47300;46.192;9.000;2023-01-25T04:20:52;99348.84;;;1.95;71.26
61434;BME280;47300;46.192;9.000;2023-01-25T04:23:17;99341.75;;;1.91;72.58
61434;BME280;47300;46.192;9.000;2023-01-25T04:25:43;99346.63;;;1.84;73.14
61434;BME280;47300;46.192;9.000;2023-01-25T04:28:15;99347.63;;;1.68;73.99
61434;BME280;47300;46.192;9.000;2023-01-25T04:30:41;99346.91;;;1.71;74.46
61434;BME280;47300;46.192;9.000;2023-01-25T04:33:06;99344.50;;;1.56;74.74
61434;BME280;47300;46.192;9.000;2023-01-25T04:35:32;99341.16;;;1.58;74.96
61434;BME280;47300;46.192;9.000;2023-01-25T04:37:57;99349.50;;;1.71;72.61
61434;BME280;47300;46.192;9.000;2023-01-25T04:40:23;99350.81;;;1.81;72.21
61434;BME280;47300;46.192;9.000;2023-01-25T04:42:48;99345.50;;;1.97;71.65
61434;BME280;47300;46.192;9.000;2023-01-25T04:45:13;99340.06;;;2.11;72.20
61434;BME280;47300;46.192;9.000;2023-01-25T04:47:39;99332.19;;;2.09;72.38
61434;BME280;47300;46.192;9.000;2023-01-25T04:50:04;99333.25;;;2.13;71.47
61434;BME280;47300;46.192;9.000;2023-01-25T04:52:29;99334.09;;;2.13;72.75
61434;BME280;47300;46.192;9.000;2023-01-25T04:54:54;99330.56;;;2.11;72.40
61434;BME280;47300;46.192;9.000;2023-01-25T04:57:20;99337.38;;;2.09;72.25
61434;BME280;47300;46.192;9.000;2023-01-25T04:59:45;99338.06;;;1.85;72.51
61434;BME280;47300;46.192;9.000;2023-01-25T05:02:10;99341.03;;;1.55;74.17
61434;BME280;47300;46.192;9.000;2023-01-25T05:04:35;99345.50;;;1.78;74.71
61434;BME280;47300;46.192;9.000;2023-01-25T05:07:01;99345.63;;;1.43;74.32
61434;BME280;47300;46.192;9.000;2023-01-25T05:09:26;99335.72;;;1.52;74.62
61434;BME280;47300;46.192;9.000;2023-01-25T05:11:51;99347.63;;;1.68;74.72
61434;BME280;47300;46.192;9.000;2023-01-25T05:14:16;99332.00;;;1.47;75.62
61434;BME280;47300;46.192;9.000;2023-01-25T05:16:42;99328.16;;;1.57;72.89
61434;BME280;47300;46.192;9.000;2023-01-25T05:19:08;99335.50;;;1.67;72.23
61434;BME280;47300;46.192;9.000;2023-01-25T05:21:33;99330.06;;;1.61;74.24
61434;BME280;47300;46.192;9.000;2023-01-25T05:24:17;99327.81;;;1.69;70.95
61434;BME280;47300;46.192;9.000;2023-01-25T05:26:42;99323.41;;;1.86;70.02
61434;BME280;47300;46.192;9.000;2023-01-25T05:29:27;99325.25;;;1.88;71.64
61434;BME280;47300;46.192;9.000;2023-01-25T05:31:52;99328.00;;;1.92;71.26
61434;BME280;47300;46.192;9.000;2023-01-25T05:34:18;99326.41;;;1.95;71.45
61434;BME280;47300;46.192;9.000;2023-01-25T05:36:43;99336.97;;;2.00;71.46
61434;BME280;47300;46.192;9.000;2023-01-25T05:39:08;99324.03;;;2.00;71.11
61434;BME280;47300;46.192;9.000;2023-01-25T05:41:33;99325.69;;;1.98;67.91
61434;BME280;47300;46.192;9.000;2023-01-25T05:43:59;99331.34;;;2.09;68.02
61434;BME280;47300;46.192;9.000;2023-01-25T05:46:26;99330.81;;;2.17;68.94
61434;BME280;47300;46.192;9.000;2023-01-25T05:48:51;99325.38;;;2.11;69.44
61434;BME280;47300;46.192;9.000;2023-01-25T05:51:16;99328.06;;;2.13;69.49
61434;BME280;47300;46.192;9.000;2023-01-25T05:53:41;99327.66;;;1.46;72.94
61434;BME280;47300;46.192;9.000;2023-01-25T05:56:07;99329.88;;;1.76;71.12
61434;BME280;47300;46.192;9.000;2023-01-25T05:58:32;99320.56;;;1.80;69.37
61434;BME280;47300;46.192;9.000;2023-01-25T06:00:58;99313.34;;;2.12;61.38
61434;BME280;47300;46.192;9.000;2023-01-25T06:03:24;99314.75;;;1.85;70.44
61434;BME280;47300;46.192;9.000;2023-01-25T06:05:53;99312.97;;;1.65;73.78
61434;BME280;47300;46.192;9.000;2023-01-25T06:08:18;99312.69;;;1.21;75.67
61434;BME280;47300;46.192;9.000;2023-01-25T06:10:43;99301.31;;;1.35;76.66
61434;BME280;47300;46.192;9.000;2023-01-25T06:13:09;99294.81;;;1.25;75.58
61434;BME280;47300;46.192;9.000;2023-01-25T06:15:34;99305.41;;;1.69;69.39
61434;BME280;47300;46.192;9.000;2023-01-25T06:17:59;99300.38;;;1.53;74.78
61434;BME280;47300;46.192;9.000;2023-01-25T06:20:24;99294.00;;;1.08;75.91
61434;BME280;47300;46.192;9.000;2023-01-25T06:22:50;99291.91;;;1.57;70.74
61434;BME280;47300;46.192;9.000;2023-01-25T06:25:15;99294.50;;;1.37;74.49
61434;BME280;47300;46.192;9.000;2023-01-25T06:27:40;99283.56;;;1.07;76.57
61434;BME280;47300;46.192;9.000;2023-01-25T06:30:05;99284.25;;;1.03;74.54
61434;BME280;47300;46.192;9.000;2023-01-25T06:32:31;99278.22;;;1.40;71.38
61434;BME280;47300;46.192;9.000;2023-01-25T06:34:57;99286.59;;;1.34;74.71
61434;BME280;47300;46.192;9.000;2023-01-25T06:37:22;99271.63;;;1.47;74.00
61434;BME280;47300;46.192;9.000;2023-01-25T06:39:47;99273.06;;;1.59;73.09
61434;BME280;47300;46.192;9.000;2023-01-25T06:42:12;99271.13;;;1.36;74.65
61434;BME280;47300;46.192;9.000;2023-01-25T06:44:38;99278.84;;;1.34;75.67
61434;BME280;47300;46.192;9.000;2023-01-25T06:47:03;99271.13;;;1.36;75.47
61434;BME280;47300;46.192;9.000;2023-01-25T06:49:28;99267.03;;;1.41;75.89
61434;BME280;47300;46.192;9.000;2023-01-25T06:51:53;99262.59;;;1.19;77.21
61434;BME280;47300;46.192;9.000;2023-01-25T06:54:18;99259.97;;;0.99;77.19
61434;BME280;47300;46.192;9.000;2023-01-25T06:56:44;99261.56;;;1.15;76.86
61434;BME280;47300;46.192;9.000;2023-01-25T06:59:09;99268.78;;;1.22;77.11
61434;BME280;47300;46.192;9.000;2023-01-25T07:01:34;99261.56;;;1.15;77.23
61434;BME280;47300;46.192;9.000;2023-01-25T07:03:59;99255.72;;;1.19;77.01
61434;BME280;47300;46.192;9.000;2023-01-25T07:06:25;99255.91;;;1.24;77.37
61434;BME280;47300;46.192;9.000;2023-01-25T07:08:54;99251.19;;;1.33;76.91
61434;BME280;47300;46.192;9.000;2023-01-25T07:11:20;99246.81;;;1.32;77.05
61434;BME280;47300;46.192;9.000;2023-01-25T07:13:45;99242.25;;;1.46;76.62
61434;BME280;47300;46.192;9.000;2023-01-25T07:16:12;99251.47;;;1.39;72.39
61434;BME280;47300;46.192;9.000;2023-01-25T07:18:38;99244.56;;;1.40;72.61
61434;BME280;47300;46.192;9.000;2023-01-25T07:21:05;99232.78;;;1.27;73.27
61434;BME280;47300;46.192;9.000;2023-01-25T07:23:31;99234.63;;;1.29;74.22
61434;BME280;47300;46.192;9.000;2023-01-25T07:25:57;99240.06;;;1.16;75.35
61434;BME280;47300;46.192;9.000;2023-01-25T07:28:22;99227.19;;;1.18;74.93
61434;BME280;47300;46.192;9.000;2023-01-25T07:30:49;99234.78;;;0.95;76.51
61434;BME280;47300;46.192;9.000;2023-01-25T07:33:14;99244.03;;;1.27;72.64
61434;BME280;47300;46.192;9.000;2023-01-25T07:35:39;99235.25;;;1.43;73.40
61434;BME280;47300;46.192;9.000;2023-01-25T07:38:05;99235.59;;;1.32;72.50
61434;BME280;47300;46.192;9.000;2023-01-25T07:40:30;99226.00;;;1.49;71.82
61434;BME280;47300;46.192;9.000;2023-01-25T07:42:55;99222.13;;;1.58;70.90
61434;BME280;47300;46.192;9.000;2023-01-25T07:45:20;99223.25;;;1.65;69.80
61434;BME280;47300;46.192;9.000;2023-01-25T07:47:46;99221.84;;;1.72;68.38
61434;BME280;47300;46.192;9.000;2023-01-25T07:50:11;99231.72;;;1.81;69.23
61434;BME280;47300;46.192;9.000;2023-01-25T07:52:36;99218.94;;;1.85;69.15
61434;BME280;47300;46.192;9.000;2023-01-25T07:55:02;99219.03;;;1.87;69.54
61434;BME280;47300;46.192;9.000;2023-01-25T07:57:27;99221.88;;;1.93;68.46
61434;BME280;47300;46.192;9.000;2023-01-25T07:59:53;99225.94;;;1.67;68.87
61434;BME280;47300;46.192;9.000;2023-01-25T08:02:18;99225.03;;;1.47;68.92
61434;BME280;47300;46.192;9.000;2023-01-25T08:04:43;99220.34;;;1.57;71.83
61434;BME280;47300;46.192;9.000;2023-01-25T08:07:10;99217.63;;;1.74;70.21
61434;BME280;47300;46.192;9.000;2023-01-25T08:09:35;99220.88;;;1.90;71.05
61434;BME280;47300;46.192;9.000;2023-01-25T08:12:00;99227.97;;;1.74;70.27
61434;BME280;47300;46.192;9.000;2023-01-25T08:14:25;99222.56;;;2.09;63.75
61434;BME280;47300;46.192;9.000;2023-01-25T08:16:50;99215.53;;;2.27;66.60
61434;BME280;47300;46.192;9.000;2023-01-25T08:19:16;99223.81;;;2.19;66.80
61434;BME280;47300;46.192;9.000;2023-01-25T08:21:44;99219.81;;;2.27;66.14
61434;BME280;47300;46.192;9.000;2023-01-25T08:24:09;99219.28;;;2.34;65.62
61434;BME280;47300;46.192;9.000;2023-01-25T08:26:34;99216.09;;;2.41;65.94
61434;BME280;47300;46.192;9.000;2023-01-25T08:29:00;99213.78;;;2.26;66.68
61434;BME280;47300;46.192;9.000;2023-01-25T08:31:27;99215.41;;;2.45;66.99
61434;BME280;47300;46.192;9.000;2023-01-25T08:33:53;99215.91;;;2.58;66.97
61434;BME280;47300;46.192;9.000;2023-01-25T08:36:18;99217.97;;;2.67;67.09
61434;BME280;47300;46.192;9.000;2023-01-25T08:38:45;99207.16;;;2.77;65.74
61434;BME280;47300;46.192;9.000;2023-01-25T08:41:11;99199.09;;;2.92;66.23
61434;BME280;47300;46.192;9.000;2023-01-25T08:43:37;99203.97;;;3.07;65.77
61434;BME280;47300;46.192;9.000;2023-01-25T08:46:03;99196.25;;;3.09;64.49
61434;BME280;47300;46.192;9.000;2023-01-25T08:48:28;99190.59;;;3.19;64.51
61434;BME280;47300;46.192;9.000;2023-01-25T08:50:53;99175.47;;;3.56;64.08
61434;BME280;47300;46.192;9.000;2023-01-25T08:53:18;99183.72;;;3.94;61.73
61434;BME280;47300;46.192;9.000;2023-01-25T08:55:43;99186.38;;;4.22;59.91
61434;BME280;47300;46.192;9.000;2023-01-25T08:58:09;99175.94;;;4.75;58.62
61434;BME280;47300;46.192;9.000;2023-01-25T09:00:35;99168.03;;;5.01;57.13
61434;BME280;47300;46.192;9.000;2023-01-25T09:03:01;99170.00;;;5.39;55.04
61434;BME280;47300;46.192;9.000;2023-01-25T09:05:26;99166.59;;;5.41;53.51
61434;BME280;47300;46.192;9.000;2023-01-25T09:07:51;99152.13;;;5.85;53.00
61434;BME280;47300;46.192;9.000;2023-01-25T09:10:16;99160.84;;;5.85;50.32
61434;BME280;47300;46.192;9.000;2023-01-25T09:12:41;99150.75;;;6.33;49.44
61434;BME280;47300;46.192;9.000;2023-01-25T09:15:07;99149.00;;;6.32;48.73
61434;BME280;47300;46.192;9.000;2023-01-25T09:17:32;99146.34;;;6.67;47.77
61434;BME280;47300;46.192;9.000;2023-01-25T09:19:57;99156.06;;;6.74;48.10
61434;BME280;47300;46.192;9.000;2023-01-25T09:22:22;99142.94;;;6.70;47.77
61434;BME280;47300;46.192;9.000;2023-01-25T09:24:48;99135.25;;;6.76;47.49
61434;BME280;47300;46.192;9.000;2023-01-25T09:27:16;99134.84;;;6.59;47.34
61434;BME280;47300;46.192;9.000;2023-01-25T09:29:41;99134.63;;;6.13;46.94
61434;BME280;47300;46.192;9.000;2023-01-25T09:32:06;99135.31;;;5.40;48.44
61434;BME280;47300;46.192;9.000;2023-01-25T09:34:32;99128.72;;;5.86;48.22
61434;BME280;47300;46.192;9.000;2023-01-25T09:36:57;99129.84;;;6.30;48.47
61434;BME280;47300;46.192;9.000;2023-01-25T09:39:22;99127.34;;;6.73;47.08
61434;BME280;47300;46.192;9.000;2023-01-25T09:47:03;99120.94;;;7.00;50.48
61434;BME280;47300;46.192;9.000;2023-01-25T09:54:44;99111.84;;;6.80;50.55
61434;BME280;47300;46.192;9.000;2023-01-25T09:57:12;99116.91;;;6.73;51.00
61434;BME280;47300;46.192;9.000;2023-01-25T09:59:38;99116.91;;;6.34;52.08
61434;BME280;47300;46.192;9.000;2023-01-25T10:02:11;99112.56;;;6.35;52.15
61434;BME280;47300;46.192;9.000;2023-01-25T10:04:41;99103.47;;;6.17;53.06
61434;BME280;47300;46.192;9.000;2023-01-25T10:07:33;99106.78;;;6.10;53.70
61434;BME280;47300;46.192;9.000;2023-01-25T10:10:04;99103.22;;;6.06;54.36
61434;BME280;47300;46.192;9.000;2023-01-25T10:12:35;99106.00;;;6.14;54.77
61434;BME280;47300;46.192;9.000;2023-01-25T10:15:00;99099.25;;;6.24;54.65
61434;BME280;47300;46.192;9.000;2023-01-25T10:17:28;99099.28;;;6.62;53.95
61434;BME280;47300;46.192;9.000;2023-01-25T10:20:02;99096.22;;;6.42;53.44
61434;BME280;47300;46.192;9.000;2023-01-25T10:22:35;99082.19;;;6.00;53.99
61434;BME280;47300;46.192;9.000;2023-01-25T10:29:55;99075.84;;;5.90;51.83
61434;BME280;47300;46.192;9.000;2023-01-25T10:32:28;99083.53;;;5.84;51.21
61434;BME280;47300;46.192;9.000;2023-01-25T10:35:00;99085.06;;;5.76;51.13
61434;BME280;47300;46.192;9.000;2023-01-25T10:37:34;99079.00;;;5.77;51.22
61434;BME280;47300;46.192;9.000;2023-01-25T10:40:02;99075.53;;;5.44;52.06
61434;BME280;47300;46.192;9.000;2023-01-25T10:42:29;99077.13;;;5.39;53.23
61434;BME280;47300;46.192;9.000;2023-01-25T10:44:55;99070.13;;;5.70;52.79
61434;BME280;47300;46.192;9.000;2023-01-25T10:49:46;99069.09;;;5.99;50.76
61434;BME280;47300;46.192;9.000;2023-01-25T10:54:44;99057.84;;;6.36;51.74
61434;BME280;47300;46.192;9.000;2023-01-25T10:57:11;99063.00;;;6.33;52.11
61434;BME280;47300;46.192;9.000;2023-01-25T10:59:38;99059.63;;;6.39;52.04
61434;BME280;47300;46.192;9.000;2023-01-25T11:02:24;99059.88;;;6.50;52.58
61434;BME280;47300;46.192;9.000;2023-01-25T11:04:49;99054.00;;;6.60;53.51
61434;BME280;47300;46.192;9.000;2023-01-25T11:07:24;99052.53;;;6.72;50.98
61434;BME280;47300;46.192;9.000;2023-01-25T11:09:50;99045.47;;;7.10;50.73
61434;BME280;47300;46.192;9.000;2023-01-25T11:12:17;99038.84;;;7.28;49.98
61434;BME280;47300;46.192;9.000;2023-01-25T11:14:42;99035.44;;;7.32;46.98
61434;BME280;47300;46.192;9.000;2023-01-25T11:17:09;99021.75;;;7.46;48.81
61434;BME280;47300;46.192;9.000;2023-01-25T11:19:44;99025.59;;;7.68;47.77
61434;BME280;47300;46.192;9.000;2023-01-25T11:24:44;99014.69;;;7.94;46.85
61434;BME280;47300;46.192;9.000;2023-01-25T11:27:11;99006.63;;;8.37;46.80
61434;BME280;47300;46.192;9.000;2023-01-25T11:29:36;98998.38;;;8.10;45.72
61434;BME280;47300;46.192;9.000;2023-01-25T11:32:01;98999.22;;;8.08;45.22
61434;BME280;47300;46.192;9.000;2023-01-25T11:34:27;99000.94;;;8.06;44.95
61434;BME280;47300;46.192;9.000;2023-01-25T11:39:37;98994.00;;;8.09;44.92
61434;BME280;47300;46.192;9.000;2023-01-25T11:42:21;98988.03;;;8.17;44.11
61434;BME280;47300;46.192;9.000;2023-01-25T11:47:53;98979.03;;;8.61;43.26
61434;BME280;47300;46.192;9.000;2023-01-25T11:50:34;98973.25;;;8.87;42.51
61434;BME280;47300;46.192;9.000;2023-01-25T11:55:40;98954.06;;;8.88;44.74
61434;BME280;47300;46.192;9.000;2023-01-25T12:05:40;98932.59;;;9.27;43.78
61434;BME280;47300;46.192;9.000;2023-01-25T12:10:40;98910.13;;;9.54;42.90
61434;BME280;47300;46.192;9.000;2023-01-25T12:13:20;98908.53;;;9.77;43.05
61434;BME280;47300;46.192;9.000;2023-01-25T12:18:33;98892.94;;;10.02;41.46
61434;BME280;47300;46.192;9.000;2023-01-25T12:26:11;98876.41;;;10.10;41.19
61434;BME280;47300;46.192;9.000;2023-01-25T12:28:44;98870.19;;;9.91;40.51
61434;BME280;47300;46.192;9.000;2023-01-25T12:31:13;98868.50;;;10.09;41.13
61434;BME280;47300;46.192;9.000;2023-01-25T12:33:57;98870.47;;;10.52;40.22
61434;BME280;47300;46.192;9.000;2023-01-25T12:41:40;98848.59;;;10.65;40.96
61434;BME280;47300;46.192;9.000;2023-01-25T12:44:10;98842.44;;;10.52;41.03
61434;BME280;47300;46.192;9.000;2023-01-25T12:46:45;98838.13;;;10.78;41.86
61434;BME280;47300;46.192;9.000;2023-01-25T12:49:16;98833.75;;;10.74;41.85
61434;BME280;47300;46.192;9.000;2023-01-25T12:51:44;98823.22;;;10.70;42.33
61434;BME280;47300;46.192;9.000;2023-01-25T12:54:15;98818.88;;;10.94;42.47
61434;BME280;47300;46.192;9.000;2023-01-25T12:56:45;98819.78;;;10.81;43.31
61434;BME280;47300;46.192;9.000;2023-01-25T13:10:12;98818.84;;;10.69;44.86
61434;BME280;47300;46.192;9.000;2023-01-25T13:12:49;98811.88;;;10.87;44.95
61434;BME280;47300;46.192;9.000;2023-01-25T13:20:52;98805.75;;;10.77;44.54
61434;BME280;47300;46.192;9.000;2023-01-25T13:23:30;98807.47;;;10.55;44.70
61434;BME280;47300;46.192;9.000;2023-01-25T13:28:42;98798.75;;;10.84;44.80
61434;BME280;47300;46.192;9.000;2023-01-25T13:31:09;98799.59;;;10.74;45.06
61434;BME280;47300;46.192;9.000;2023-01-25T13:33:34;98799.59;;;10.70;45.00
61434;BME280;47300;46.192;9.000;2023-01-25T13:38:44;98791.75;;;10.83;44.93
61434;BME280;47300;46.192;9.000;2023-01-25T13:41:13;98790.00;;;10.88;45.31
61434;BME280;47300;46.192;9.000;2023-01-25T13:43:41;98790.88;;;11.17;44.07
61434;BME280;47300;46.192;9.000;2023-01-25T13:46:07;98790.88;;;11.04;44.51
61434;BME280;47300;46.192;9.000;2023-01-25T13:48:34;98787.34;;;10.69;45.52
61434;BME280;47300;46.192;9.000;2023-01-25T13:51:01;98792.59;;;10.63;45.52
61434;BME280;47300;46.192;9.000;2023-01-25T13:53:27;98786.47;;;10.58;45.96
61434;BME280;47300;46.192;9.000;2023-01-25T13:55:59;98778.56;;;10.47;46.54
61434;BME280;47300;46.192;9.000;2023-01-25T13:58:29;98776.84;;;10.59;45.83
61434;BME280;47300;46.192;9.000;2023-01-25T14:00:55;98781.22;;;10.46;45.93
61434;BME280;47300;46.192;9.000;2023-01-25T14:03:28;98787.34;;;10.57;46.43
61434;BME280;47300;46.192;9.000;2023-01-25T14:05:54;98780.34;;;10.44;45.82
61434;BME280;47300;46.192;9.000;2023-01-25T14:08:21;98773.22;;;10.16;47.29
61434;BME280;47300;46.192;9.000;2023-01-25T14:10:46;98771.53;;;10.37;47.09
61434;BME280;47300;46.192;9.000;2023-01-25T14:13:13;98770.72;;;10.49;46.53
61434;BME280;47300;46.192;9.000;2023-01-25T14:15:38;98765.47;;;10.61;46.27
61434;BME280;47300;46.192;9.000;2023-01-25T14:18:08;98767.25;;;10.67;45.99
61434;BME280;47300;46.192;9.000;2023-01-25T14:20:35;98764.63;;;10.64;45.89
61434;BME280;47300;46.192;9.000;2023-01-25T14:23:00;98761.09;;;10.69;46.04
61434;BME280;47300;46.192;9.000;2023-01-25T14:25:25;98758.47;;;10.90;45.71
61434;BME280;47300;46.192;9.000;2023-01-25T14:27:54;98759.38;;;10.87;45.63
61434;BME280;47300;46.192;9.000;2023-01-25T14:32:45;98756.75;;;10.87;45.84
61434;BME280;47300;46.192;9.000;2023-01-25T14:37:51;98759.34;;;10.95;45.62